sensor_id;sensor_type;location;lat;lon;timestamp;temperature;humidity
20376;DHT22;10347;51.828;6.466;2023-05-07T00:00:32;18.30;99.90
20376;DHT22;10347;51.828;6.466;2023-05-07T00:02:59;18.30;99.90
20376;DHT22;10347;51.828;6.466;2023-05-07T00:05:25;18.30;99.90
20376;DHT22;10347;51.828;6.466;2023-05-07T00:07:51;18.30;99.90
20376;DHT22;10347;51.828;6.466;2023-05-07T00:10:18;18.20;99.90
20376;DHT22;10347;51.828;6.466;2023-05-07T00:12:44;18.20;99.90
20376;DHT22;10347;51.828;6.466;2023-05-07T00:15:10;18.20;99.90
20376;DHT22;10347;51.828;6.466;2023-05-07T00:17:36;18.20;99.90
20376;DHT22;10347;51.828;6.466;2023-05-07T00:20:03;18.10;99.90
20376;DHT22;10347;51.828;6.466;2023-05-07T00:22:30;18.10;99.90
20376;DHT22;10347;51.828;6.466;2023-05-07T00:24:56;18.10;99.90
20376;DHT22;10347;51.828;6.466;2023-05-07T00:27:22;18.10;99.90
20376;DHT22;10347;51.828;6.466;2023-05-07T00:29:48;18.10;99.90
20376;DHT22;10347;51.828;6.466;2023-05-07T00:32:13;18.10;99.90
20376;DHT22;10347;51.828;6.466;2023-05-07T00:34:39;18.00;99.90
20376;DHT22;10347;51.828;6.466;2023-05-07T00:37:05;18.00;99.90
20376;DHT22;10347;51.828;6.466;2023-05-07T00:39:33;18.00;99.90
20376;DHT22;10347;51.828;6.466;2023-05-07T00:41:59;18.00;99.90
20376;DHT22;10347;51.828;6.466;2023-05-07T00:44:26;18.00;99.90
20376;DHT22;10347;51.828;6.466;2023-05-07T00:46:52;17.90;99.90
20376;DHT22;10347;51.828;6.466;2023-05-07T00:49:18;18.00;99.90
20376;DHT22;10347;51.828;6.466;2023-05-07T00:51:44;17.90;99.90
20376;DHT22;10347;51.828;6.466;2023-05-07T00:54:10;17.90;99.90
20376;DHT22;10347;51.828;6.466;2023-05-07T00:56:36;17.90;99.90
20376;DHT22;10347;51.828;6.466;2023-05-07T00:59:03;18.00;99.90
20376;DHT22;10347;51.828;6.466;2023-05-07T01:01:28;17.90;99.90
20376;DHT22;10347;51.828;6.466;2023-05-07T01:03:54;18.00;99.90
20376;DHT22;10347;51.828;6.466;2023-05-07T01:06:21;17.90;99.90
20376;DHT22;10347;51.828;6.466;2023-05-07T01:08:49;17.90;99.90
20376;DHT22;10347;51.828;6.466;2023-05-07T01:11:16;17.80;99.90
20376;DHT22;10347;51.828;6.466;2023-05-07T01:13:44;17.80;99.90
20376;DHT22;10347;51.828;6.466;2023-05-07T01:16:10;17.80;99.90
20376;DHT22;10347;51.828;6.466;2023-05-07T01:18:36;17.80;99.90
20376;DHT22;10347;51.828;6.466;2023-05-07T01:21:04;17.80;99.90
20376;DHT22;10347;51.828;6.466;2023-05-07T01:23:30;17.80;99.90
20376;DHT22;10347;51.828;6.466;2023-05-07T01:25:56;17.80;99.90
20376;DHT22;10347;51.828;6.466;2023-05-07T01:28:21;17.80;99.90
20376;DHT22;10347;51.828;6.466;2023-05-07T01:30:52;17.80;99.90
20376;DHT22;10347;51.828;6.466;2023-05-07T01:33:20;17.80;99.90
20376;DHT22;10347;51.828;6.466;2023-05-07T01:35:52;17.80;99.90
20376;DHT22;10347;51.828;6.466;2023-05-07T01:38:19;17.80;99.90
20376;DHT22;10347;51.828;6.466;2023-05-07T01:40:46;17.80;99.90
20376;DHT22;10347;51.828;6.466;2023-05-07T01:43:12;17.80;99.90
20376;DHT22;10347;51.828;6.466;2023-05-07T01:45:38;17.80;99.90
20376;DHT22;10347;51.828;6.466;2023-05-07T01:48:04;17.80;99.90
20376;DHT22;10347;51.828;6.466;2023-05-07T01:50:32;17.70;99.90
20376;DHT22;10347;51.828;6.466;2023-05-07T01:52:59;17.70;99.90
20376;DHT22;10347;51.828;6.466;2023-05-07T01:55:24;17.60;99.90
20376;DHT22;10347;51.828;6.466;2023-05-07T01:57:50;17.70;99.90
20376;DHT22;10347;51.828;6.466;2023-05-07T02:00:16;17.70;99.90
20376;DHT22;10347;51.828;6.466;2023-05-07T02:02:42;17.70;99.90
20376;DHT22;10347;51.828;6.466;2023-05-07T02:05:08;17.60;99.90
20376;DHT22;10347;51.828;6.466;2023-05-07T02:07:34;17.60;99.90
20376;DHT22;10347;51.828;6.466;2023-05-07T02:09:59;17.60;99.90
20376;DHT22;10347;51.828;6.466;2023-05-07T02:12:25;17.60;99.90
20376;DHT22;10347;51.828;6.466;2023-05-07T02:14:53;17.60;99.90
20376;DHT22;10347;51.828;6.466;2023-05-07T02:17:19;17.60;99.90
20376;DHT22;10347;51.828;6.466;2023-05-07T02:19:44;17.50;99.90
20376;DHT22;10347;51.828;6.466;2023-05-07T02:22:10;17.50;99.90
20376;DHT22;10347;51.828;6.466;2023-05-07T02:24:36;17.50;99.90
20376;DHT22;10347;51.828;6.466;2023-05-07T02:27:01;17.50;99.90
20376;DHT22;10347;51.828;6.466;2023-05-07T02:29:28;17.50;99.90
20376;DHT22;10347;51.828;6.466;2023-05-07T02:31:54;17.40;99.90
20376;DHT22;10347;51.828;6.466;2023-05-07T02:34:19;17.40;99.90
20376;DHT22;10347;51.828;6.466;2023-05-07T02:36:45;17.40;99.90
20376;DHT22;10347;51.828;6.466;2023-05-07T02:39:12;17.40;99.90
20376;DHT22;10347;51.828;6.466;2023-05-07T02:41:38;17.40;99.90
20376;DHT22;10347;51.828;6.466;2023-05-07T02:44:04;17.40;99.90
20376;DHT22;10347;51.828;6.466;2023-05-07T02:46:30;17.40;99.90
20376;DHT22;10347;51.828;6.466;2023-05-07T02:48:55;17.30;99.90
20376;DHT22;10347;51.828;6.466;2023-05-07T02:51:22;17.30;99.90
20376;DHT22;10347;51.828;6.466;2023-05-07T02:53:48;17.30;99.90
20376;DHT22;10347;51.828;6.466;2023-05-07T02:56:13;17.20;99.90
20376;DHT22;10347;51.828;6.466;2023-05-07T02:58:39;17.30;99.90
20376;DHT22;10347;51.828;6.466;2023-05-07T03:01:05;17.20;99.90
20376;DHT22;10347;51.828;6.466;2023-05-07T03:03:31;17.20;99.90
20376;DHT22;10347;51.828;6.466;2023-05-07T03:05:56;17.20;99.90
20376;DHT22;10347;51.828;6.466;2023-05-07T03:08:22;17.20;99.90
20376;DHT22;10347;51.828;6.466;2023-05-07T03:10:48;17.10;99.90
20376;DHT22;10347;51.828;6.466;2023-05-07T03:13:13;17.10;99.90
20376;DHT22;10347;51.828;6.466;2023-05-07T03:15:39;17.20;99.90
20376;DHT22;10347;51.828;6.466;2023-05-07T03:18:05;17.20;99.90
20376;DHT22;10347;51.828;6.466;2023-05-07T03:20:30;17.10;99.90
20376;DHT22;10347;51.828;6.466;2023-05-07T03:22:56;17.10;99.90
20376;DHT22;10347;51.828;6.466;2023-05-07T03:25:22;17.10;99.90
20376;DHT22;10347;51.828;6.466;2023-05-07T03:27:47;17.10;99.90
20376;DHT22;10347;51.828;6.466;2023-05-07T03:30:13;17.00;99.90
20376;DHT22;10347;51.828;6.466;2023-05-07T03:32:38;17.10;99.90
20376;DHT22;10347;51.828;6.466;2023-05-07T03:35:04;17.00;99.90
20376;DHT22;10347;51.828;6.466;2023-05-07T03:37:30;17.00;99.90
20376;DHT22;10347;51.828;6.466;2023-05-07T03:39:56;17.00;99.90
20376;DHT22;10347;51.828;6.466;2023-05-07T03:42:21;17.00;99.90
20376;DHT22;10347;51.828;6.466;2023-05-07T03:44:47;17.00;99.90
20376;DHT22;10347;51.828;6.466;2023-05-07T03:47:12;17.00;99.90
20376;DHT22;10347;51.828;6.466;2023-05-07T03:49:39;17.00;99.90
20376;DHT22;10347;51.828;6.466;2023-05-07T03:52:05;16.90;99.90
20376;DHT22;10347;51.828;6.466;2023-05-07T03:54:30;16.90;99.90
20376;DHT22;10347;51.828;6.466;2023-05-07T03:56:56;16.90;99.90
20376;DHT22;10347;51.828;6.466;2023-05-07T03:59:22;16.90;99.90
20376;DHT22;10347;51.828;6.466;2023-05-07T04:01:47;16.90;99.90
20376;DHT22;10347;51.828;6.466;2023-05-07T04:04:14;16.90;99.90
20376;DHT22;10347;51.828;6.466;2023-05-07T04:06:40;16.90;99.90
20376;DHT22;10347;51.828;6.466;2023-05-07T04:09:05;16.90;99.90
20376;DHT22;10347;51.828;6.466;2023-05-07T04:11:31;16.90;99.90
20376;DHT22;10347;51.828;6.466;2023-05-07T04:13:57;16.90;99.90
20376;DHT22;10347;51.828;6.466;2023-05-07T04:16:23;16.90;99.90
20376;DHT22;10347;51.828;6.466;2023-05-07T04:18:48;16.90;99.90
20376;DHT22;10347;51.828;6.466;2023-05-07T04:21:18;16.90;99.90
20376;DHT22;10347;51.828;6.466;2023-05-07T04:23:46;16.90;99.90
20376;DHT22;10347;51.828;6.466;2023-05-07T04:26:11;16.90;99.90
20376;DHT22;10347;51.828;6.466;2023-05-07T04:28:38;16.80;99.90
20376;DHT22;10347;51.828;6.466;2023-05-07T04:31:04;16.90;99.90
20376;DHT22;10347;51.828;6.466;2023-05-07T04:33:30;16.90;99.90
20376;DHT22;10347;51.828;6.466;2023-05-07T04:35:55;16.90;99.90
20376;DHT22;10347;51.828;6.466;2023-05-07T04:38:21;16.90;99.90
20376;DHT22;10347;51.828;6.466;2023-05-07T04:40:49;16.80;99.90
20376;DHT22;10347;51.828;6.466;2023-05-07T04:43:14;16.80;99.90
20376;DHT22;10347;51.828;6.466;2023-05-07T04:45:41;16.80;99.90
20376;DHT22;10347;51.828;6.466;2023-05-07T04:48:08;16.80;99.90
20376;DHT22;10347;51.828;6.466;2023-05-07T04:50:34;16.80;99.90
20376;DHT22;10347;51.828;6.466;2023-05-07T04:53:00;16.80;99.90
20376;DHT22;10347;51.828;6.466;2023-05-07T04:55:25;16.80;99.90
20376;DHT22;10347;51.828;6.466;2023-05-07T04:57:52;16.80;99.90
20376;DHT22;10347;51.828;6.466;2023-05-07T05:00:18;16.80;99.90
20376;DHT22;10347;51.828;6.466;2023-05-07T05:02:45;16.80;99.90
20376;DHT22;10347;51.828;6.466;2023-05-07T05:05:11;16.80;99.90
20376;DHT22;10347;51.828;6.466;2023-05-07T05:07:37;16.80;99.90
20376;DHT22;10347;51.828;6.466;2023-05-07T05:10:03;16.80;99.90
20376;DHT22;10347;51.828;6.466;2023-05-07T05:12:29;16.80;99.90
20376;DHT22;10347;51.828;6.466;2023-05-07T05:14:55;16.70;99.90
20376;DHT22;10347;51.828;6.466;2023-05-07T05:17:21;16.70;99.90
20376;DHT22;10347;51.828;6.466;2023-05-07T05:19:46;16.80;99.90
20376;DHT22;10347;51.828;6.466;2023-05-07T05:22:12;16.70;99.90
20376;DHT22;10347;51.828;6.466;2023-05-07T05:24:37;16.70;99.90
20376;DHT22;10347;51.828;6.466;2023-05-07T05:27:04;16.70;99.90
20376;DHT22;10347;51.828;6.466;2023-05-07T05:29:30;16.70;99.90
20376;DHT22;10347;51.828;6.466;2023-05-07T05:31:57;16.70;99.90
20376;DHT22;10347;51.828;6.466;2023-05-07T05:34:22;16.70;99.90
20376;DHT22;10347;51.828;6.466;2023-05-07T05:36:48;16.70;99.90
20376;DHT22;10347;51.828;6.466;2023-05-07T05:39:13;16.70;99.90
20376;DHT22;10347;51.828;6.466;2023-05-07T05:41:42;16.70;99.90
20376;DHT22;10347;51.828;6.466;2023-05-07T05:44:07;16.70;99.90
20376;DHT22;10347;51.828;6.466;2023-05-07T05:46:33;16.80;99.90
20376;DHT22;10347;51.828;6.466;2023-05-07T05:49:00;16.70;99.90
20376;DHT22;10347;51.828;6.466;2023-05-07T05:51:25;16.70;99.90
20376;DHT22;10347;51.828;6.466;2023-05-07T05:53:51;16.80;99.90
20376;DHT22;10347;51.828;6.466;2023-05-07T05:56:17;16.80;99.90
20376;DHT22;10347;51.828;6.466;2023-05-07T05:58:42;16.70;99.90
20376;DHT22;10347;51.828;6.466;2023-05-07T06:01:08;16.80;99.90
20376;DHT22;10347;51.828;6.466;2023-05-07T06:03:34;16.80;99.90
20376;DHT22;10347;51.828;6.466;2023-05-07T06:05:59;16.80;99.90
20376;DHT22;10347;51.828;6.466;2023-05-07T06:08:30;16.80;99.90
20376;DHT22;10347;51.828;6.466;2023-05-07T06:10:56;16.80;99.90
20376;DHT22;10347;51.828;6.466;2023-05-07T06:13:22;16.80;99.90
20376;DHT22;10347;51.828;6.466;2023-05-07T06:15:49;16.90;99.90
20376;DHT22;10347;51.828;6.466;2023-05-07T06:18:15;16.90;99.90
20376;DHT22;10347;51.828;6.466;2023-05-07T06:20:40;16.90;99.90
20376;DHT22;10347;51.828;6.466;2023-05-07T06:23:06;16.90;99.90
20376;DHT22;10347;51.828;6.466;2023-05-07T06:25:32;16.90;99.90
20376;DHT22;10347;51.828;6.466;2023-05-07T06:27:57;16.90;99.90
20376;DHT22;10347;51.828;6.466;2023-05-07T06:30:23;16.90;99.90
20376;DHT22;10347;51.828;6.466;2023-05-07T06:32:48;16.90;99.90
20376;DHT22;10347;51.828;6.466;2023-05-07T06:35:14;16.90;99.90
20376;DHT22;10347;51.828;6.466;2023-05-07T06:37:41;16.90;99.90
20376;DHT22;10347;51.828;6.466;2023-05-07T06:40:08;16.90;99.90
20376;DHT22;10347;51.828;6.466;2023-05-07T06:42:35;17.00;99.90
20376;DHT22;10347;51.828;6.466;2023-05-07T06:45:00;17.00;99.90
20376;DHT22;10347;51.828;6.466;2023-05-07T06:47:26;17.00;99.90
20376;DHT22;10347;51.828;6.466;2023-05-07T06:49:51;17.00;99.90
20376;DHT22;10347;51.828;6.466;2023-05-07T06:52:17;17.00;99.90
20376;DHT22;10347;51.828;6.466;2023-05-07T06:54:42;17.00;99.90
20376;DHT22;10347;51.828;6.466;2023-05-07T06:57:08;17.10;99.90
20376;DHT22;10347;51.828;6.466;2023-05-07T06:59:34;17.10;99.90
20376;DHT22;10347;51.828;6.466;2023-05-07T07:01:59;17.10;99.90
20376;DHT22;10347;51.828;6.466;2023-05-07T07:04:25;17.20;99.90
20376;DHT22;10347;51.828;6.466;2023-05-07T07:06:53;17.20;99.90
20376;DHT22;10347;51.828;6.466;2023-05-07T07:09:18;17.20;99.90
20376;DHT22;10347;51.828;6.466;2023-05-07T07:11:44;17.20;99.90
20376;DHT22;10347;51.828;6.466;2023-05-07T07:14:09;17.20;99.90
20376;DHT22;10347;51.828;6.466;2023-05-07T07:16:35;17.30;99.90
20376;DHT22;10347;51.828;6.466;2023-05-07T07:19:01;17.30;99.90
20376;DHT22;10347;51.828;6.466;2023-05-07T07:21:26;17.30;99.90
20376;DHT22;10347;51.828;6.466;2023-05-07T07:23:52;17.40;99.90
20376;DHT22;10347;51.828;6.466;2023-05-07T07:26:17;17.40;99.90
20376;DHT22;10347;51.828;6.466;2023-05-07T07:28:46;17.40;99.90
20376;DHT22;10347;51.828;6.466;2023-05-07T07:31:12;17.50;99.90
20376;DHT22;10347;51.828;6.466;2023-05-07T07:33:38;17.50;99.90
20376;DHT22;10347;51.828;6.466;2023-05-07T07:36:05;17.50;99.90
20376;DHT22;10347;51.828;6.466;2023-05-07T07:38:31;17.60;99.90
20376;DHT22;10347;51.828;6.466;2023-05-07T07:40:57;17.50;99.90
20376;DHT22;10347;51.828;6.466;2023-05-07T07:43:22;17.60;99.90
20376;DHT22;10347;51.828;6.466;2023-05-07T07:45:48;17.70;99.90
20376;DHT22;10347;51.828;6.466;2023-05-07T07:48:14;17.70;99.90
20376;DHT22;10347;51.828;6.466;2023-05-07T07:50:39;17.80;99.90
20376;DHT22;10347;51.828;6.466;2023-05-07T07:53:05;17.80;99.90
20376;DHT22;10347;51.828;6.466;2023-05-07T07:55:30;17.80;99.90
20376;DHT22;10347;51.828;6.466;2023-05-07T07:57:57;17.90;99.90
20376;DHT22;10347;51.828;6.466;2023-05-07T08:00:23;17.90;99.90
20376;DHT22;10347;51.828;6.466;2023-05-07T08:02:48;17.90;99.90
20376;DHT22;10347;51.828;6.466;2023-05-07T08:05:14;18.00;99.90
20376;DHT22;10347;51.828;6.466;2023-05-07T08:07:40;18.00;99.90
20376;DHT22;10347;51.828;6.466;2023-05-07T08:10:06;18.00;99.90
20376;DHT22;10347;51.828;6.466;2023-05-07T08:12:35;18.10;99.90
20376;DHT22;10347;51.828;6.466;2023-05-07T08:15:00;18.10;99.90
20376;DHT22;10347;51.828;6.466;2023-05-07T08:17:26;18.10;99.90
20376;DHT22;10347;51.828;6.466;2023-05-07T08:19:51;18.20;99.90
20376;DHT22;10347;51.828;6.466;2023-05-07T08:22:17;18.30;99.90
20376;DHT22;10347;51.828;6.466;2023-05-07T08:24:43;18.30;99.90
20376;DHT22;10347;51.828;6.466;2023-05-07T08:27:10;18.30;99.90
20376;DHT22;10347;51.828;6.466;2023-05-07T08:29:35;18.40;99.90
20376;DHT22;10347;51.828;6.466;2023-05-07T08:32:01;18.40;99.90
20376;DHT22;10347;51.828;6.466;2023-05-07T08:34:26;18.40;99.90
20376;DHT22;10347;51.828;6.466;2023-05-07T08:36:52;18.40;99.90
20376;DHT22;10347;51.828;6.466;2023-05-07T08:39:17;18.50;99.90
20376;DHT22;10347;51.828;6.466;2023-05-07T08:41:44;18.50;99.90
20376;DHT22;10347;51.828;6.466;2023-05-07T08:44:13;18.50;99.90
20376;DHT22;10347;51.828;6.466;2023-05-07T08:46:39;18.60;99.90
20376;DHT22;10347;51.828;6.466;2023-05-07T08:49:07;18.60;99.90
20376;DHT22;10347;51.828;6.466;2023-05-07T08:51:33;18.70;99.90
20376;DHT22;10347;51.828;6.466;2023-05-07T08:53:59;18.70;99.90
20376;DHT22;10347;51.828;6.466;2023-05-07T08:56:26;18.80;99.90
20376;DHT22;10347;51.828;6.466;2023-05-07T08:58:52;18.80;99.90
20376;DHT22;10347;51.828;6.466;2023-05-07T09:01:22;18.80;99.90
20376;DHT22;10347;51.828;6.466;2023-05-07T09:03:47;18.90;99.90
20376;DHT22;10347;51.828;6.466;2023-05-07T09:06:13;19.00;99.90
20376;DHT22;10347;51.828;6.466;2023-05-07T09:08:39;19.00;99.90
20376;DHT22;10347;51.828;6.466;2023-05-07T09:11:05;19.00;99.90
20376;DHT22;10347;51.828;6.466;2023-05-07T09:13:30;19.10;99.90
20376;DHT22;10347;51.828;6.466;2023-05-07T09:15:56;19.20;99.90
20376;DHT22;10347;51.828;6.466;2023-05-07T09:18:24;19.20;99.90
20376;DHT22;10347;51.828;6.466;2023-05-07T09:20:50;19.30;99.90
20376;DHT22;10347;51.828;6.466;2023-05-07T09:23:16;19.40;99.90
20376;DHT22;10347;51.828;6.466;2023-05-07T09:25:42;19.40;99.90
20376;DHT22;10347;51.828;6.466;2023-05-07T09:28:07;19.50;99.90
20376;DHT22;10347;51.828;6.466;2023-05-07T09:30:34;19.60;99.90
20376;DHT22;10347;51.828;6.466;2023-05-07T09:33:02;19.60;99.90
20376;DHT22;10347;51.828;6.466;2023-05-07T09:35:28;19.70;99.90
20376;DHT22;10347;51.828;6.466;2023-05-07T09:37:59;19.80;99.90
20376;DHT22;10347;51.828;6.466;2023-05-07T09:40:29;19.80;99.90
20376;DHT22;10347;51.828;6.466;2023-05-07T09:42:55;19.90;99.90
20376;DHT22;10347;51.828;6.466;2023-05-07T09:45:28;20.00;99.90
20376;DHT22;10347;51.828;6.466;2023-05-07T09:47:55;20.10;99.90
20376;DHT22;10347;51.828;6.466;2023-05-07T09:50:30;20.10;99.90
20376;DHT22;10347;51.828;6.466;2023-05-07T09:52:57;20.20;99.90
20376;DHT22;10347;51.828;6.466;2023-05-07T09:55:23;20.20;99.90
20376;DHT22;10347;51.828;6.466;2023-05-07T09:57:53;20.30;99.90
20376;DHT22;10347;51.828;6.466;2023-05-07T10:00:20;20.30;99.90
20376;DHT22;10347;51.828;6.466;2023-05-07T10:02:51;20.40;99.90
20376;DHT22;10347;51.828;6.466;2023-05-07T10:05:21;20.40;99.90
20376;DHT22;10347;51.828;6.466;2023-05-07T10:07:47;20.50;99.90
20376;DHT22;10347;51.828;6.466;2023-05-07T10:10:14;20.50;99.90
20376;DHT22;10347;51.828;6.466;2023-05-07T10:12:41;20.60;99.90
20376;DHT22;10347;51.828;6.466;2023-05-07T10:15:08;20.70;99.90
20376;DHT22;10347;51.828;6.466;2023-05-07T10:17:38;20.80;99.90
20376;DHT22;10347;51.828;6.466;2023-05-07T10:20:05;20.80;99.90
20376;DHT22;10347;51.828;6.466;2023-05-07T10:22:39;20.90;99.90
20376;DHT22;10347;51.828;6.466;2023-05-07T10:25:18;21.00;99.90
20376;DHT22;10347;51.828;6.466;2023-05-07T10:27:45;21.00;99.90
20376;DHT22;10347;51.828;6.466;2023-05-07T10:32:49;21.10;99.90
20376;DHT22;10347;51.828;6.466;2023-05-07T10:35:24;21.20;99.90
20376;DHT22;10347;51.828;6.466;2023-05-07T10:37:51;21.20;99.90
20376;DHT22;10347;51.828;6.466;2023-05-07T10:40:17;21.20;99.90
20376;DHT22;10347;51.828;6.466;2023-05-07T10:42:57;21.20;99.90
20376;DHT22;10347;51.828;6.466;2023-05-07T10:45:25;21.30;99.90
20376;DHT22;10347;51.828;6.466;2023-05-07T10:48:10;21.40;99.90
20376;DHT22;10347;51.828;6.466;2023-05-07T10:50:38;21.50;99.90
20376;DHT22;10347;51.828;6.466;2023-05-07T10:56:29;21.50;99.90
20376;DHT22;10347;51.828;6.466;2023-05-07T10:58:35;21.50;99.90
20376;DHT22;10347;51.828;6.466;2023-05-07T11:01:03;21.60;99.90
20376;DHT22;10347;51.828;6.466;2023-05-07T11:03:29;21.60;99.90
20376;DHT22;10347;51.828;6.466;2023-05-07T11:08:55;21.70;99.90
20376;DHT22;10347;51.828;6.466;2023-05-07T11:11:44;21.80;99.90
20376;DHT22;10347;51.828;6.466;2023-05-07T11:14:10;21.80;99.90
20376;DHT22;10347;51.828;6.466;2023-05-07T11:16:36;21.80;99.90
20376;DHT22;10347;51.828;6.466;2023-05-07T11:19:04;21.90;99.90
20376;DHT22;10347;51.828;6.466;2023-05-07T11:21:37;21.90;99.90
20376;DHT22;10347;51.828;6.466;2023-05-07T11:24:04;21.90;99.90
20376;DHT22;10347;51.828;6.466;2023-05-07T11:26:41;22.00;99.90
20376;DHT22;10347;51.828;6.466;2023-05-07T11:29:11;22.00;99.90
20376;DHT22;10347;51.828;6.466;2023-05-07T11:31:37;22.10;99.90
20376;DHT22;10347;51.828;6.466;2023-05-07T11:34:03;22.20;99.90
20376;DHT22;10347;51.828;6.466;2023-05-07T11:36:31;22.20;99.90
20376;DHT22;10347;51.828;6.466;2023-05-07T11:38:57;22.30;99.90
20376;DHT22;10347;51.828;6.466;2023-05-07T11:41:23;22.30;99.90
20376;DHT22;10347;51.828;6.466;2023-05-07T11:43:59;22.30;99.90
20376;DHT22;10347;51.828;6.466;2023-05-07T11:46:26;22.40;99.90
20376;DHT22;10347;51.828;6.466;2023-05-07T11:48:51;22.40;99.90
20376;DHT22;10347;51.828;6.466;2023-05-07T11:51:24;22.40;99.90
20376;DHT22;10347;51.828;6.466;2023-05-07T11:53:52;22.40;99.90
20376;DHT22;10347;51.828;6.466;2023-05-07T11:56:18;22.50;99.90
20376;DHT22;10347;51.828;6.466;2023-05-07T11:58:46;22.50;99.90
20376;DHT22;10347;51.828;6.466;2023-05-07T12:01:12;22.50;99.90
20376;DHT22;10347;51.828;6.466;2023-05-07T12:03:42;22.60;99.90
20376;DHT22;10347;51.828;6.466;2023-05-07T12:06:08;22.60;99.90
20376;DHT22;10347;51.828;6.466;2023-05-07T12:08:37;22.60;99.90
20376;DHT22;10347;51.828;6.466;2023-05-07T12:11:03;22.60;99.90
20376;DHT22;10347;51.828;6.466;2023-05-07T12:13:32;22.60;99.90
20376;DHT22;10347;51.828;6.466;2023-05-07T12:15:57;22.60;99.90
20376;DHT22;10347;51.828;6.466;2023-05-07T12:18:23;22.60;99.90
20376;DHT22;10347;51.828;6.466;2023-05-07T12:20:50;22.60;99.90
20376;DHT22;10347;51.828;6.466;2023-05-07T12:23:16;22.60;99.90
20376;DHT22;10347;51.828;6.466;2023-05-07T12:25:43;22.70;99.90
20376;DHT22;10347;51.828;6.466;2023-05-07T12:28:16;22.70;99.90
20376;DHT22;10347;51.828;6.466;2023-05-07T12:30:43;22.70;99.90
20376;DHT22;10347;51.828;6.466;2023-05-07T12:33:10;22.70;99.90
20376;DHT22;10347;51.828;6.466;2023-05-07T12:35:42;22.80;99.90
20376;DHT22;10347;51.828;6.466;2023-05-07T12:38:16;22.70;99.90
20376;DHT22;10347;51.828;6.466;2023-05-07T12:40:47;22.70;99.90
20376;DHT22;10347;51.828;6.466;2023-05-07T12:43:26;22.80;99.90
20376;DHT22;10347;51.828;6.466;2023-05-07T12:45:55;22.70;99.90
20376;DHT22;10347;51.828;6.466;2023-05-07T12:48:22;22.80;99.90
20376;DHT22;10347;51.828;6.466;2023-05-07T12:50:52;22.70;99.90
20376;DHT22;10347;51.828;6.466;2023-05-07T12:53:21;22.80;99.90
20376;DHT22;10347;51.828;6.466;2023-05-07T12:55:57;22.80;99.90
20376;DHT22;10347;51.828;6.466;2023-05-07T12:58:26;22.80;99.90
20376;DHT22;10347;51.828;6.466;2023-05-07T13:00:53;22.80;99.90
20376;DHT22;10347;51.828;6.466;2023-05-07T13:03:28;22.80;99.90
20376;DHT22;10347;51.828;6.466;2023-05-07T13:05:59;22.80;99.90
20376;DHT22;10347;51.828;6.466;2023-05-07T13:10:51;22.80;99.90
20376;DHT22;10347;51.828;6.466;2023-05-07T13:13:18;22.80;99.90
20376;DHT22;10347;51.828;6.466;2023-05-07T13:15:44;22.80;99.90
20376;DHT22;10347;51.828;6.466;2023-05-07T13:18:09;22.80;99.90
20376;DHT22;10347;51.828;6.466;2023-05-07T13:20:36;22.90;99.90
20376;DHT22;10347;51.828;6.466;2023-05-07T13:23:02;22.90;99.90
20376;DHT22;10347;51.828;6.466;2023-05-07T13:25:29;22.90;99.90
20376;DHT22;10347;51.828;6.466;2023-05-07T13:27:56;22.80;99.90
20376;DHT22;10347;51.828;6.466;2023-05-07T13:30:22;22.80;99.90
20376;DHT22;10347;51.828;6.466;2023-05-07T13:32:48;22.80;99.90
20376;DHT22;10347;51.828;6.466;2023-05-07T13:35:14;22.90;99.90
20376;DHT22;10347;51.828;6.466;2023-05-07T13:37:40;22.90;99.90
20376;DHT22;10347;51.828;6.466;2023-05-07T13:40:06;22.90;99.90
20376;DHT22;10347;51.828;6.466;2023-05-07T13:42:31;22.80;99.90
20376;DHT22;10347;51.828;6.466;2023-05-07T13:44:57;22.80;99.90
20376;DHT22;10347;51.828;6.466;2023-05-07T13:47:23;22.70;99.90
20376;DHT22;10347;51.828;6.466;2023-05-07T13:49:48;22.80;99.90
20376;DHT22;10347;51.828;6.466;2023-05-07T13:52:15;22.80;99.90
20376;DHT22;10347;51.828;6.466;2023-05-07T13:54:41;22.70;99.90
20376;DHT22;10347;51.828;6.466;2023-05-07T13:57:07;22.70;99.90
20376;DHT22;10347;51.828;6.466;2023-05-07T13:59:33;22.70;99.90
20376;DHT22;10347;51.828;6.466;2023-05-07T14:01:59;22.70;99.90
20376;DHT22;10347;51.828;6.466;2023-05-07T14:04:24;22.70;99.90
20376;DHT22;10347;51.828;6.466;2023-05-07T14:06:50;22.70;99.90
20376;DHT22;10347;51.828;6.466;2023-05-07T14:09:16;22.70;99.90
20376;DHT22;10347;51.828;6.466;2023-05-07T14:11:42;22.70;99.90
20376;DHT22;10347;51.828;6.466;2023-05-07T14:14:07;22.70;99.90
20376;DHT22;10347;51.828;6.466;2023-05-07T14:16:36;22.70;99.90
20376;DHT22;10347;51.828;6.466;2023-05-07T14:19:01;22.70;99.90
20376;DHT22;10347;51.828;6.466;2023-05-07T14:21:27;22.70;99.90
20376;DHT22;10347;51.828;6.466;2023-05-07T14:23:52;22.70;99.90
20376;DHT22;10347;51.828;6.466;2023-05-07T14:26:18;22.70;99.90
20376;DHT22;10347;51.828;6.466;2023-05-07T14:28:44;22.70;99.90
20376;DHT22;10347;51.828;6.466;2023-05-07T14:31:12;22.70;99.90
20376;DHT22;10347;51.828;6.466;2023-05-07T14:33:37;22.70;99.90
20376;DHT22;10347;51.828;6.466;2023-05-07T14:36:03;22.70;99.90
20376;DHT22;10347;51.828;6.466;2023-05-07T14:38:29;22.70;99.90
20376;DHT22;10347;51.828;6.466;2023-05-07T14:40:55;22.60;99.90
20376;DHT22;10347;51.828;6.466;2023-05-07T14:43:21;22.60;99.90
20376;DHT22;10347;51.828;6.466;2023-05-07T14:45:47;22.60;99.90
20376;DHT22;10347;51.828;6.466;2023-05-07T14:48:12;22.60;99.90
20376;DHT22;10347;51.828;6.466;2023-05-07T14:50:41;22.60;99.90
20376;DHT22;10347;51.828;6.466;2023-05-07T14:53:06;22.50;99.90
20376;DHT22;10347;51.828;6.466;2023-05-07T14:55:32;22.50;99.90
20376;DHT22;10347;51.828;6.466;2023-05-07T14:57:58;22.50;99.90
20376;DHT22;10347;51.828;6.466;2023-05-07T15:00:24;22.50;99.90
20376;DHT22;10347;51.828;6.466;2023-05-07T15:02:49;22.50;99.90
20376;DHT22;10347;51.828;6.466;2023-05-07T15:05:15;22.50;99.90
20376;DHT22;10347;51.828;6.466;2023-05-07T15:07:41;22.50;99.90
20376;DHT22;10347;51.828;6.466;2023-05-07T15:10:07;22.50;99.90
20376;DHT22;10347;51.828;6.466;2023-05-07T15:12:32;22.50;99.90
20376;DHT22;10347;51.828;6.466;2023-05-07T15:14:58;22.50;99.90
20376;DHT22;10347;51.828;6.466;2023-05-07T15:17:23;22.40;99.90
20376;DHT22;10347;51.828;6.466;2023-05-07T15:19:49;22.40;99.90
20376;DHT22;10347;51.828;6.466;2023-05-07T15:22:14;22.40;99.90
20376;DHT22;10347;51.828;6.466;2023-05-07T15:24:40;22.40;99.90
20376;DHT22;10347;51.828;6.466;2023-05-07T15:27:06;22.30;99.90
20376;DHT22;10347;51.828;6.466;2023-05-07T15:29:32;22.30;99.90
20376;DHT22;10347;51.828;6.466;2023-05-07T15:31:59;22.40;99.90
20376;DHT22;10347;51.828;6.466;2023-05-07T15:34:24;22.30;99.90
20376;DHT22;10347;51.828;6.466;2023-05-07T15:36:50;22.30;99.90